EST,Max TemperatureF,Mean TemperatureF,Min TemperatureF,Max Dew PointF,MeanDew PointF,Min DewpointF,Max Humidity, Mean Humidity, Min Humidity, Max Sea Level PressureIn, Mean Sea Level PressureIn, Min Sea Level PressureIn, Max VisibilityMiles, Mean VisibilityMiles, Min VisibilityMiles, Max Wind SpeedMPH, Mean Wind SpeedMPH, Max Gust SpeedMPH,PrecipitationIn, CloudCover, Events, WindDirDegrees
2013-1-1,51,48,44,48,44,31,93,85,54,30.10,30.01,29.95,10,6,2,15,4,16,0.22,7,Rain,210
2013-1-2,48,44,39,46,42,37,100,91,81,30.21,30.05,29.93,10,6,2,14,2,,0.39,7,Rain,22
2013-1-3,43,36,28,37,32,27,96,85,60,30.26,30.23,30.17,10,5,0,6,1,,0.00,4,Fog,34
2013-1-4,48,37,26,33,25,19,93,70,35,30.32,30.26,30.20,10,7,2,12,2,16,0.00,0,,282
2013-1-5,50,38,26,31,25,20,82,60,35,30.40,30.32,30.28,10,10,10,6,3,,0.00,0,,294
2013-1-6,46,42,37,40,36,30,93,77,62,30.25,30.16,30.08,10,10,6,7,3,,0.00,6,Rain,201
2013-1-7,52,41,30,35,30,27,92,74,41,30.46,30.36,30.19,10,10,7,13,2,,0.00,0,,23
2013-1-8,55,42,28,40,32,26,96,83,51,30.47,30.43,30.39,10,7,2,6,1,,0.00,3,,27
2013-1-9,68,50,33,51,40,32,96,84,49,30.45,30.40,30.36,10,7,2,6,1,,0.00,0,,250
2013-1-10,64,55,45,47,40,31,93,66,37,30.54,30.47,30.41,10,10,9,9,2,,0.00,0,,55
2013-1-11,55,50,44,53,47,32,100,86,63,30.46,30.26,30.15,10,5,0,6,1,,0.05,8,Fog-Rain,299
2013-1-12,64,58,52,59,56,51,100,94,83,30.18,30.14,30.12,9,2,0,4,1,,0.01,6,Fog,109
2013-1-13,73,65,57,61,58,55,100,88,62,30.15,30.12,30.07,10,5,0,8,3,,0.01,2,Fog,184
2013-1-14,75,65,55,61,58,54,97,84,56,30.17,30.13,30.10,10,10,7,10,5,,0.00,4,,195
2013-1-15,60,53,46,57,46,43,96,92,86,30.25,30.19,30.09,10,5,1,17,9,18,0.05,8,Rain,33
2013-1-16,52,49,46,50,47,45,100,94,88,30.09,30.02,29.99,10,4,1,12,3,,0.07,8,Rain,353
2013-1-17,53,43,33,52,45,32,100,92,87,30.07,29.99,29.94,10,6,2,25,7,36,0.86,8,Rain-Snow,26
2013-1-18,48,38,28,33,28,22,92,74,36,30.55,30.41,30.15,10,9,4,14,7,16,0.05,2,Snow,330
2013-1-19,53,39,25,34,27,22,92,71,32,30.52,30.37,30.17,10,10,7,8,2,,0.00,0,,201
2013-1-20,64,50,36,36,33,29,83,59,28,30.14,30.06,29.97,10,10,10,13,6,20,0.00,0,,231
2013-1-21,59,44,30,34,28,21,88,55,26,30.09,29.99,29.87,10,10,10,10,4,,0.00,0,,237
2013-1-22,39,31,23,21,7,-5,60,36,16,30.30,30.17,29.96,10,10,10,17,7,24,0.00,0,,322
2013-1-23,37,27,17,16,10,1,78,51,27,30.40,30.28,30.10,10,10,10,9,2,,0.00,0,,224
2013-1-24,37,28,19,25,13,4,76,52,31,30.55,30.29,29.96,10,10,10,25,9,36,0.00,2,,348
2013-1-25,28,22,17,27,19,6,93,76,43,30.54,30.30,30.12,10,6,1,7,1,,0.34,6,Rain-Snow,242
2013-1-26,36,31,26,30,27,25,96,89,75,30.42,30.27,30.11,10,3,0,7,3,,0.00,6,Fog,288
2013-1-27,41,33,25,28,25,22,93,84,50,30.62,30.53,30.42,10,4,0,9,2,,0.00,4,Fog,37
2013-1-28,53,38,26,46,35,23,92,74,59,30.53,30.36,30.23,10,9,5,10,3,,0.00,7,,197
2013-1-29,73,62,50,55,51,45,86,73,52,30.23,30.16,30.09,10,9,7,12,8,20,0.00,1,,213
2013-1-30,73,66,59,61,60,56,94,78,62,30.06,29.86,29.43,10,10,9,28,12,45,0.00,7,,183
2013-1-31,72,52,33,63,34,18,88,55,28,30.03,29.74,29.37,10,9,1,26,18,54,0.33,3,Rain,247